Time;durP1;ratioP1;P1;durP2;ratioP2;P2;SDS_P1;SDS_P2;PMS_P1;PMS_P2;Temp;Humidity;BMP_temperature;BMP_pressure;BME280_temperature;BME280_humidity;BME280_pressure;Samples;Min_cycle;Max_cycle;Signal;HPM_P1;HPM_P2
2021/01/13 00:00:23;;;;;;;4.70;4.30;;;5.50;45.40;;;;;;4993596;28;20192;-64
2021/01/13 00:02:49;;;;;;;5.17;3.83;;;5.20;46.60;;;;;;4994095;28;20408;-64
2021/01/13 00:05:15;;;;;;;5.30;4.37;;;5.20;47.10;;;;;;4994957;28;20266;-65
2021/01/13 00:07:42;;;;;;;5.50;4.27;;;5.10;48.30;;;;;;4994683;28;20193;-64
2021/01/13 00:10:08;;;;;;;5.30;3.80;;;5.30;46.00;;;;;;4994719;28;20416;-64
2021/01/13 00:12:34;;;;;;;4.63;4.20;;;5.40;46.30;;;;;;4994618;28;21065;-64
2021/01/13 00:15:00;;;;;;;4.87;3.63;;;5.40;46.90;;;;;;4994534;28;20426;-64
2021/01/13 00:17:25;;;;;;;4.77;4.37;;;5.40;45.40;;;;;;4994535;28;20409;-64
2021/01/13 00:19:51;;;;;;;3.83;3.60;;;5.60;46.10;;;;;;4994382;28;20213;-64
2021/01/13 00:22:16;;;;;;;3.63;3.40;;;5.40;45.50;;;;;;4994648;28;20183;-64
2021/01/13 00:24:42;;;;;;;4.20;3.80;;;5.40;46.00;;;;;;4994505;28;20209;-64
2021/01/13 00:27:07;;;;;;;4.07;3.67;;;5.40;45.80;;;;;;4994295;28;20174;-64
2021/01/13 00:29:33;;;;;;;3.10;2.90;;;5.30;46.20;;;;;;4994531;28;20545;-64
2021/01/13 00:32:00;;;;;;;6.70;3.10;;;5.20;46.80;;;;;;4994528;28;20174;-64
2021/01/13 00:34:27;;;;;;;3.73;3.30;;;5.40;44.10;;;;;;4994376;28;20654;-64
2021/01/13 00:36:53;;;;;;;3.30;3.10;;;5.40;44.00;;;;;;4994275;28;20405;-64
2021/01/13 00:39:19;;;;;;;3.30;3.03;;;5.40;44.20;;;;;;4993952;28;20449;-64
2021/01/13 00:41:45;;;;;;;4.40;3.40;;;5.20;45.40;;;;;;4994093;28;20433;-64
2021/01/13 00:44:10;;;;;;;2.93;2.73;;;5.30;45.30;;;;;;4994149;28;20177;-64
2021/01/13 00:46:37;;;;;;;4.50;2.80;;;5.40;44.60;;;;;;4994116;28;20226;-64
2021/01/13 00:49:04;;;;;;;4.43;2.87;;;5.70;44.20;;;;;;4993833;28;20174;-64
2021/01/13 00:51:38;;;;;;;5.73;3.10;;;5.80;43.80;;;;;;4993887;28;20420;-64
2021/01/13 00:54:07;;;;;;;3.77;3.17;;;5.80;43.70;;;;;;4993895;28;20410;-64
2021/01/13 00:56:34;;;;;;;3.10;2.90;;;5.80;43.80;;;;;;4993842;28;20767;-64
2021/01/13 00:58:59;;;;;;;2.70;2.50;;;5.90;43.50;;;;;;4993477;28;20461;-64
2021/01/13 01:01:26;;;;;;;3.77;2.73;;;5.90;43.60;;;;;;4993759;28;20911;-64
2021/01/13 01:03:53;;;;;;;3.27;2.87;;;5.70;43.40;;;;;;4993617;28;20312;-64
2021/01/13 01:06:19;;;;;;;2.57;2.37;;;5.70;43.70;;;;;;4993613;28;20435;-64
2021/01/13 01:08:44;;;;;;;4.73;3.20;;;5.70;44.40;;;;;;4993777;28;20423;-63
2021/01/13 01:11:11;;;;;;;2.97;2.63;;;5.90;43.50;;;;;;4993606;28;20262;-63
2021/01/13 01:13:37;;;;;;;9.83;2.70;;;5.90;43.90;;;;;;4993543;28;20184;-63
2021/01/13 01:16:03;;;;;;;3.20;3.00;;;5.80;43.40;;;;;;4993503;28;21021;-64
2021/01/13 01:18:28;;;;;;;4.70;2.97;;;6.00;43.30;;;;;;4993280;28;20294;-64
2021/01/13 01:20:54;;;;;;;3.23;2.30;;;6.00;42.90;;;;;;4993393;28;20499;-64
2021/01/13 01:23:19;;;;;;;3.43;2.30;;;5.90;43.10;;;;;;4993209;28;20235;-64
2021/01/13 01:25:45;;;;;;;3.40;3.10;;;5.90;42.50;;;;;;4993197;28;20218;-64
2021/01/13 01:28:10;;;;;;;2.80;2.60;;;5.90;43.40;;;;;;4993073;28;20188;-64
2021/01/13 01:30:36;;;;;;;4.10;2.70;;;5.90;43.10;;;;;;4993216;28;20270;-64
2021/01/13 01:33:02;;;;;;;3.00;2.80;;;5.60;43.90;;;;;;4993304;28;20182;-64
2021/01/13 01:35:27;;;;;;;4.23;2.90;;;5.50;44.60;;;;;;4993219;28;20233;-64
2021/01/13 01:37:53;;;;;;;3.07;2.47;;;5.50;43.90;;;;;;4993132;28;20444;-63
2021/01/13 01:40:19;;;;;;;3.03;2.50;;;5.60;43.90;;;;;;4993081;28;20180;-63
2021/01/13 01:42:50;;;;;;;4.40;2.03;;;5.80;43.60;;;;;;4993044;28;20175;-63
2021/01/13 01:45:18;;;;;;;3.10;2.80;;;5.70;43.30;;;;;;4993225;28;20560;-63
2021/01/13 01:48:02;;;;;;;3.13;2.83;;;5.60;44.10;;;;;;4992810;28;20427;-64
2021/01/13 01:50:39;;;;;;;2.73;2.30;;;5.80;44.00;;;;;;4992838;28;20440;-64
2021/01/13 01:53:13;;;;;;;2.90;2.70;;;5.60;42.20;;;;;;4992916;28;20841;-64
2021/01/13 01:56:13;;;;;;;2.97;2.60;;;5.50;43.00;;;;;;4992943;28;20797;-64
2021/01/13 01:58:40;;;;;;;2.43;2.23;;;5.60;43.30;;;;;;4992487;28;20518;-64
2021/01/13 02:01:05;;;;;;;3.23;2.57;;;5.50;43.10;;;;;;4992604;28;20405;-64
2021/01/13 02:03:52;;;;;;;2.30;2.03;;;5.40;44.30;;;;;;4992661;28;20417;-64
2021/01/13 02:06:18;;;;;;;3.93;2.70;;;5.50;43.20;;;;;;4992475;28;20188;-64
2021/01/13 02:08:46;;;;;;;3.20;2.63;;;5.70;43.90;;;;;;4992352;28;20420;-64
2021/01/13 02:11:19;;;;;;;4.10;2.50;;;5.90;42.60;;;;;;4992132;28;20815;-64
2021/01/13 02:13:46;;;;;;;2.60;2.37;;;5.80;43.30;;;;;;4992334;28;20486;-64
2021/01/13 02:16:14;;;;;;;3.73;2.30;;;5.80;42.50;;;;;;4992509;28;20522;-64
2021/01/13 02:18:42;;;;;;;2.80;2.40;;;5.60;43.10;;;;;;4992076;28;20496;-64
2021/01/13 02:21:19;;;;;;;2.30;2.10;;;5.50;43.50;;;;;;4992214;28;20416;-64
2021/01/13 02:24:09;;;;;;;3.57;2.10;;;5.40;44.20;;;;;;4992118;28;20439;-64
2021/01/13 02:27:01;;;;;;;5.10;2.50;;;5.60;43.50;;;;;;4992163;28;20433;-64
2021/01/13 02:29:43;;;;;;;5.10;2.50;;;5.70;43.20;;;;;;4992075;28;20487;-64
2021/01/13 02:32:24;;;;;;;2.40;2.20;;;5.50;44.10;;;;;;4992522;28;20851;-64
2021/01/13 02:35:14;;;;;;;2.40;2.20;;;5.60;43.90;;;;;;4992207;28;20465;-64
2021/01/13 02:38:03;;;;;;;2.90;2.57;;;5.30;44.50;;;;;;4991933;28;20457;-64
2021/01/13 02:40:30;;;;;;;2.83;2.63;;;5.50;44.70;;;;;;4991925;28;20436;-64
2021/01/13 02:43:33;;;;;;;3.10;2.53;;;5.50;44.20;;;;;;4991975;28;20408;-64
2021/01/13 02:46:13;;;;;;;4.10;2.70;;;5.40;45.20;;;;;;4991864;28;20425;-64
2021/01/13 02:48:40;;;;;;;2.60;2.43;;;5.40;43.60;;;;;;4991836;28;20435;-64
2021/01/13 02:51:20;;;;;;;3.37;2.23;;;5.40;43.70;;;;;;4991730;28;20471;-64
2021/01/13 02:53:55;;;;;;;4.83;2.30;;;5.50;43.80;;;;;;4992141;28;20900;-65
2021/01/13 02:56:40;;;;;;;3.30;2.07;;;5.60;43.80;;;;;;4991706;28;20431;-64
2021/01/13 02:59:11;;;;;;;2.60;2.40;;;5.60;42.70;;;;;;4991545;28;20811;-64
2021/01/13 03:01:40;;;;;;;3.57;2.30;;;5.70;44.00;;;;;;4991631;28;20411;-64
2021/01/13 03:04:07;;;;;;;2.60;2.40;;;5.60;43.30;;;;;;4991759;28;20423;-64
2021/01/13 03:06:36;;;;;;;2.50;2.30;;;5.50;43.80;;;;;;4991543;28;20513;-64
2021/01/13 03:09:04;;;;;;;4.20;2.53;;;5.50;43.20;;;;;;4991715;28;20908;-64
2021/01/13 03:11:30;;;;;;;2.70;2.40;;;5.60;43.20;;;;;;4991636;28;20451;-64
2021/01/13 03:14:09;;;;;;;3.67;2.60;;;5.60;44.20;;;;;;4991483;28;20969;-64
2021/01/13 03:16:43;;;;;;;3.33;2.20;;;5.60;42.70;;;;;;4991519;28;20447;-64
2021/01/13 03:19:17;;;;;;;2.57;2.30;;;5.80;42.80;;;;;;4991228;28;20495;-64
2021/01/13 03:22:16;;;;;;;3.40;2.37;;;5.60;42.90;;;;;;4991506;28;20411;-64
2021/01/13 03:24:57;;;;;;;2.63;2.10;;;5.80;42.50;;;;;;4995356;28;20495;-64
2021/01/13 03:27:24;;;;;;;2.67;2.17;;;5.80;41.40;;;;;;4995392;28;20420;-64
2021/01/13 03:29:52;;;;;;;2.50;2.20;;;5.70;42.60;;;;;;4995714;28;20440;-64
2021/01/13 03:32:43;;;;;;;3.57;2.43;;;5.80;43.00;;;;;;4995456;28;20451;-64
2021/01/13 03:35:11;;;;;;;3.10;2.70;;;5.50;42.00;;;;;;4995430;28;21099;-64
2021/01/13 03:37:59;;;;;;;4.10;2.47;;;5.60;42.60;;;;;;4995186;28;20471;-64
2021/01/13 03:40:28;;;;;;;2.57;2.37;;;5.40;42.70;;;;;;4995393;28;20409;-64
2021/01/13 03:42:57;;;;;;;2.67;1.80;;;5.20;43.50;;;;;;4995225;28;20891;-64
2021/01/13 03:45:34;;;;;;;3.33;2.53;;;5.10;44.40;;;;;;4995220;28;20441;-64
2021/01/13 03:48:09;;;;;;;3.40;2.47;;;5.20;43.80;;;;;;4995507;28;20894;-64
2021/01/13 03:50:42;;;;;;;3.10;2.90;;;5.40;43.30;;;;;;4995219;28;20392;-64
2021/01/13 03:53:09;;;;;;;3.07;2.60;;;5.30;44.10;;;;;;4995185;28;20409;-64
2021/01/13 03:55:37;;;;;;;4.20;3.80;;;5.50;43.20;;;;;;4994888;28;20511;-64
2021/01/13 03:58:13;;;;;;;3.70;2.27;;;5.40;42.80;;;;;;4994919;28;20415;-64
2021/01/13 04:01:01;;;;;;;6.87;2.70;;;5.40;45.40;;;;;;4994904;28;20414;-64
2021/01/13 04:03:30;;;;;;;4.10;2.70;;;5.20;42.90;;;;;;4994900;28;20860;-64
2021/01/13 04:06:02;;;;;;;2.73;2.53;;;5.30;44.10;;;;;;4994621;28;20431;-64
2021/01/13 04:08:43;;;;;;;5.40;2.80;;;5.20;43.30;;;;;;4994678;28;20764;-64
2021/01/13 04:11:19;;;;;;;3.80;2.70;;;5.20;43.00;;;;;;4995025;28;20425;-64
2021/01/13 04:13:50;;;;;;;2.87;2.60;;;5.40;43.40;;;;;;4994753;28;20808;-64
2021/01/13 04:16:18;;;;;;;2.93;2.70;;;5.40;42.90;;;;;;4994474;28;20433;-64
2021/01/13 04:18:46;;;;;;;3.10;2.43;;;5.70;42.50;;;;;;4994299;28;20832;-64
2021/01/13 04:21:15;;;;;;;2.93;2.67;;;5.60;41.40;;;;;;4994506;28;20983;-64
2021/01/13 04:23:41;;;;;;;3.50;2.30;;;5.60;41.60;;;;;;4994233;28;20638;-64
2021/01/13 04:26:07;;;;;;;3.10;2.53;;;5.50;43.00;;;;;;4994800;28;20531;-64
2021/01/13 04:28:33;;;;;;;3.43;2.63;;;5.30;42.30;;;;;;4994628;28;20922;-64
2021/01/13 04:30:59;;;;;;;2.70;2.50;;;5.40;42.80;;;;;;4994527;28;20452;-64
2021/01/13 04:33:25;;;;;;;8.63;3.60;;;5.30;42.80;;;;;;4994129;28;20189;-64
2021/01/13 04:35:52;;;;;;;2.93;2.33;;;5.40;42.70;;;;;;4994294;28;20494;-64
2021/01/13 04:38:48;;;;;;;3.60;2.23;;;5.40;42.10;;;;;;4994185;28;20951;-64
2021/01/13 04:41:19;;;;;;;5.20;3.07;;;5.50;41.70;;;;;;4989897;28;20490;-64
2021/01/13 04:43:53;;;;;;;4.60;2.90;;;5.40;42.10;;;;;;4994172;28;20423;-64
2021/01/13 04:46:36;;;;;;;2.93;2.73;;;5.40;42.00;;;;;;4994238;28;20851;-64
2021/01/13 04:49:05;;;;;;;5.57;2.83;;;5.50;42.30;;;;;;4994060;28;20442;-64
2021/01/13 04:51:42;;;;;;;3.10;2.80;;;5.70;42.10;;;;;;4993991;28;20514;-64
2021/01/13 04:54:13;;;;;;;3.77;2.70;;;5.70;41.80;;;;;;4993902;28;20424;-64
2021/01/13 04:56:45;;;;;;;3.07;2.77;;;5.90;41.40;;;;;;4993722;28;20428;-64
2021/01/13 04:59:32;;;;;;;4.03;3.43;;;5.70;41.90;;;;;;4993653;28;20465;-64
2021/01/13 05:02:08;;;;;;;2.90;2.70;;;5.60;41.30;;;;;;4993671;28;20404;-64
2021/01/13 05:04:56;;;;;;;4.43;3.97;;;5.30;42.50;;;;;;4993715;28;20494;-64
2021/01/13 05:07:41;;;;;;;3.53;2.50;;;5.50;42.80;;;;;;4993607;28;20404;-65
2021/01/13 05:10:08;;;;;;;4.67;3.03;;;5.40;41.80;;;;;;4993810;28;20405;-65
2021/01/13 05:12:57;;;;;;;3.87;3.57;;;5.50;42.60;;;;;;4993498;28;20419;-64
2021/01/13 05:15:30;;;;;;;4.30;3.00;;;5.60;42.60;;;;;;4993460;28;20464;-64
2021/01/13 05:18:04;;;;;;;3.27;2.97;;;5.50;40.70;;;;;;4993466;28;20435;-64
2021/01/13 05:20:32;;;;;;;4.17;3.00;;;5.40;41.60;;;;;;4993744;28;20412;-64
2021/01/13 05:22:59;;;;;;;2.93;2.70;;;5.20;42.00;;;;;;4993357;28;20417;-64
2021/01/13 05:25:33;;;;;;;3.17;2.97;;;5.10;43.80;;;;;;4998706;28;21105;-64
2021/01/13 05:28:08;;;;;;;3.40;3.10;;;5.20;42.10;;;;;;5012369;28;20429;-64
2021/01/13 05:30:36;;;;;;;4.77;3.27;;;5.40;44.40;;;;;;5009919;28;20470;-64
2021/01/13 05:33:06;;;;;;;7.67;3.80;;;5.20;42.50;;;;;;5012519;28;20514;-64
2021/01/13 05:35:35;;;;;;;3.60;3.30;;;5.30;42.40;;;;;;5012549;28;20446;-64
2021/01/13 05:38:07;;;;;;;3.37;3.10;;;5.10;42.90;;;;;;5012431;28;20492;-64
2021/01/13 05:40:48;;;;;;;5.50;2.80;;;5.10;43.80;;;;;;5012640;28;20461;-65
2021/01/13 05:43:15;;;;;;;2.87;2.73;;;5.20;43.20;;;;;;5012529;28;20747;-64
2021/01/13 05:45:41;;;;;;;5.57;3.80;;;5.10;42.80;;;;;;5012070;28;20427;-64
2021/01/13 05:48:24;;;;;;;4.20;3.80;;;5.20;42.70;;;;;;5012272;28;20410;-64
2021/01/13 05:50:54;;;;;;;4.37;2.83;;;5.40;42.00;;;;;;5012800;28;20499;-65
2021/01/13 05:53:24;;;;;;;3.67;3.10;;;5.40;41.20;;;;;;5012663;28;20796;-64
2021/01/13 05:55:52;;;;;;;2.97;2.77;;;5.50;40.50;;;;;;5012914;28;20454;-64
2021/01/13 05:58:23;;;;;;;4.60;2.60;;;5.50;41.00;;;;;;5012037;28;20458;-64
2021/01/13 06:00:52;;;;;;;3.27;3.07;;;5.50;41.30;;;;;;5012212;28;20422;-64
2021/01/13 06:03:21;;;;;;;4.10;3.77;;;5.40;41.20;;;;;;5012219;28;20494;-64
2021/01/13 06:05:53;;;;;;;3.93;3.10;;;5.20;41.70;;;;;;5012030;28;20440;-64
2021/01/13 06:08:23;;;;;;;4.23;2.97;;;5.40;41.30;;;;;;5011973;28;20412;-64
2021/01/13 06:10:50;;;;;;;3.70;3.33;;;5.40;41.50;;;;;;5011798;28;20501;-64
2021/01/13 06:13:18;;;;;;;5.27;4.13;;;5.20;41.90;;;;;;5011576;28;20911;-64
2021/01/13 06:15:45;;;;;;;3.43;3.07;;;5.50;41.50;;;;;;5011732;28;20521;-64
2021/01/13 06:18:14;;;;;;;4.60;3.47;;;5.60;41.40;;;;;;5011557;28;20410;-64
2021/01/13 06:20:41;;;;;;;3.70;2.87;;;5.60;40.70;;;;;;5012090;28;20411;-64
2021/01/13 06:23:10;;;;;;;4.57;3.10;;;5.40;41.00;;;;;;5011580;28;20413;-64
2021/01/13 06:25:35;;;;;;;3.63;3.33;;;5.50;41.00;;;;;;5011475;28;20430;-64
2021/01/13 06:28:06;;;;;;;5.50;3.27;;;5.40;41.80;;;;;;5010978;28;20439;-64
2021/01/13 06:30:40;;;;;;;5.00;4.37;;;5.50;41.80;;;;;;5011413;28;20181;-64
2021/01/13 06:33:08;;;;;;;5.80;3.50;;;5.60;40.60;;;;;;5011521;28;20512;-64
2021/01/13 06:35:42;;;;;;;3.73;3.43;;;5.60;41.40;;;;;;5011518;28;20602;-64
2021/01/13 06:38:15;;;;;;;7.70;3.93;;;5.50;41.90;;;;;;5011381;28;20415;-64
2021/01/13 06:40:42;;;;;;;3.83;3.53;;;5.60;41.40;;;;;;5011587;28;20403;-64
2021/01/13 06:43:14;;;;;;;4.23;3.90;;;5.70;41.00;;;;;;5011365;28;20595;-64
2021/01/13 06:45:40;;;;;;;5.90;4.00;;;5.60;41.10;;;;;;5011069;28;20930;-65
2021/01/13 06:48:07;;;;;;;3.40;3.20;;;5.70;41.20;;;;;;5011257;28;20410;-64
2021/01/13 06:50:40;;;;;;;4.17;3.83;;;5.70;41.20;;;;;;5011272;28;21093;-64
2021/01/13 06:53:11;;;;;;;3.43;3.03;;;5.70;40.80;;;;;;5011574;28;20410;-63
2021/01/13 06:55:38;;;;;;;4.37;3.67;;;6.00;57.90;;;;;;5011182;28;20970;-63
2021/01/13 06:58:17;;;;;;;4.33;3.70;;;6.20;49.20;;;;;;5010893;28;20560;-64
2021/01/13 07:00:44;;;;;;;4.27;3.67;;;5.90;45.30;;;;;;5011153;28;20413;-63
2021/01/13 07:03:30;;;;;;;4.20;3.20;;;5.50;44.00;;;;;;5011369;28;20488;-63
2021/01/13 07:06:08;;;;;;;4.13;3.53;;;5.80;47.50;;;;;;5011265;28;20452;-64
2021/01/13 07:08:34;;;;;;;4.23;3.40;;;5.70;45.50;;;;;;5011098;28;20413;-64
2021/01/13 07:11:08;;;;;;;5.53;4.60;;;5.70;48.90;;;;;;5011229;28;20961;-64
2021/01/13 07:13:47;;;;;;;4.90;3.77;;;5.70;42.50;;;;;;5010804;28;20467;-64
2021/01/13 07:16:14;;;;;;;4.33;4.00;;;5.30;44.00;;;;;;5010922;28;20436;-64
2021/01/13 07:18:41;;;;;;;3.60;3.30;;;5.50;43.20;;;;;;5010954;28;20455;-64
2021/01/13 07:21:11;;;;;;;4.80;4.30;;;5.40;42.30;;;;;;5011065;28;20416;-64
2021/01/13 07:23:40;;;;;;;5.13;3.47;;;5.50;42.70;;;;;;5010887;28;20799;-62
2021/01/13 07:26:06;;;;;;;7.40;4.30;;;5.60;41.40;;;;;;5011019;28;20450;-64
2021/01/13 07:28:34;;;;;;;4.17;3.63;;;5.50;41.40;;;;;;5010899;28;20415;-62
2021/01/13 07:31:01;;;;;;;5.53;4.57;;;5.40;41.20;;;;;;5010826;28;20406;-64
2021/01/13 07:33:31;;;;;;;4.83;4.33;;;5.20;41.80;;;;;;5010916;28;20872;-62
2021/01/13 07:35:59;;;;;;;4.00;3.70;;;5.20;42.50;;;;;;5010779;28;20447;-62
2021/01/13 07:38:29;;;;;;;6.53;4.37;;;5.00;42.00;;;;;;5010799;28;20452;-62
2021/01/13 07:41:04;;;;;;;3.93;3.63;;;5.00;42.30;;;;;;5010940;28;20411;-61
2021/01/13 07:44:13;;;;;;;3.90;3.60;;;5.10;41.20;;;;;;5010917;28;20915;-62
2021/01/13 07:46:49;;;;;;;4.23;3.90;;;5.10;41.70;;;;;;5010688;28;20433;-63
2021/01/13 07:49:22;;;;;;;3.47;3.17;;;5.00;41.40;;;;;;5010952;28;20768;-63
2021/01/13 07:51:57;;;;;;;3.50;3.30;;;4.90;41.70;;;;;;5010633;28;20427;-63
2021/01/13 07:54:28;;;;;;;5.43;3.47;;;4.90;41.80;;;;;;5010659;28;20439;-64
2021/01/13 07:57:00;;;;;;;5.77;4.40;;;5.00;41.20;;;;;;5010744;28;20503;-64
2021/01/13 07:59:48;;;;;;;8.83;4.53;;;5.00;41.90;;;;;;5010677;28;20471;-64
2021/01/13 08:02:51;;;;;;;8.47;4.40;;;5.00;41.00;;;;;;5010544;28;20416;-64
2021/01/13 08:05:16;;;;;;;3.90;3.50;;;5.30;40.50;;;;;;5009398;28;20547;-66
2021/01/13 08:07:43;;;;;;;5.17;4.40;;;5.30;40.10;;;;;;5012039;28;20983;-68
2021/01/13 08:10:10;;;;;;;5.40;3.53;;;5.30;39.90;;;;;;5014287;28;20473;-66
2021/01/13 08:12:53;;;;;;;5.33;2.83;;;5.30;39.40;;;;;;5013875;28;20429;-66
2021/01/13 08:15:25;;;;;;;4.07;3.80;;;5.10;38.50;;;;;;5014002;28;20433;-66
2021/01/13 08:18:06;;;;;;;2.90;2.70;;;5.00;39.70;;;;;;5013809;28;20473;-65
2021/01/13 08:20:45;;;;;;;3.97;2.87;;;5.40;39.20;;;;;;5014082;28;20783;-66
2021/01/13 08:23:26;;;;;;;5.10;3.40;;;5.40;38.80;;;;;;5014126;28;20468;-65
2021/01/13 08:25:57;;;;;;;4.15;3.30;;;5.30;38.70;;;;;;5013638;28;20403;-66
2021/01/13 08:28:24;;;;;;;4.30;3.97;;;5.50;39.60;;;;;;5013767;28;20176;-65
2021/01/13 08:30:50;;;;;;;5.83;4.23;;;5.30;39.20;;;;;;5013987;28;20419;-65
2021/01/13 08:33:20;;;;;;;4.00;3.60;;;5.20;38.90;;;;;;5013650;28;20431;-66
2021/01/13 08:35:48;;;;;;;8.17;4.23;;;5.30;39.60;;;;;;5013732;28;20430;-66
2021/01/13 08:38:14;;;;;;;8.80;3.90;;;5.20;39.80;;;;;;5013615;28;20415;-65
2021/01/13 08:40:40;;;;;;;4.00;3.63;;;5.00;41.20;;;;;;5013817;28;20406;-64
2021/01/13 08:43:13;;;;;;;5.57;3.90;;;5.30;41.90;;;;;;5013846;28;20208;-65
2021/01/13 08:45:59;;;;;;;4.07;3.67;;;5.30;40.90;;;;;;5013859;28;20424;-66
2021/01/13 08:48:25;;;;;;;6.23;5.13;;;5.60;40.20;;;;;;5013549;28;20891;-65
2021/01/13 08:51:08;;;;;;;5.27;3.93;;;5.40;41.40;;;;;;5013154;28;20431;-65
2021/01/13 08:53:34;;;;;;;17.30;12.80;;;5.10;41.40;;;;;;5013491;28;20187;-65
2021/01/13 08:56:01;;;;;;;4.50;4.10;;;5.20;41.90;;;;;;5013306;28;20939;-66
2021/01/13 08:58:35;;;;;;;4.67;4.27;;;5.10;41.20;;;;;;5013363;28;20802;-65
2021/01/13 09:01:05;;;;;;;6.23;4.17;;;5.00;41.80;;;;;;5013461;28;20408;-66
2021/01/13 09:03:41;;;;;;;4.60;3.77;;;5.00;41.50;;;;;;5013306;28;20412;-65
2021/01/13 09:06:17;;;;;;;4.77;4.27;;;5.10;41.20;;;;;;5012820;28;20631;-66
2021/01/13 09:08:51;;;;;;;4.10;3.70;;;5.30;40.60;;;;;;5013028;28;20474;-65
2021/01/13 09:11:36;;;;;;;4.70;4.23;;;5.30;40.40;;;;;;5013228;28;20474;-65
2021/01/13 09:14:18;;;;;;;4.60;4.00;;;5.30;40.20;;;;;;5012740;28;20415;-66
2021/01/13 09:16:48;;;;;;;7.13;3.93;;;5.50;40.20;;;;;;5012919;28;20785;-66
2021/01/13 09:19:17;;;;;;;4.20;3.90;;;5.20;39.30;;;;;;5012748;28;20962;-65
2021/01/13 09:21:43;;;;;;;4.40;3.30;;;5.30;40.20;;;;;;5012919;28;20409;-66
2021/01/13 09:24:16;;;;;;;8.90;3.70;;;5.40;39.80;;;;;;5012929;28;20911;-65
2021/01/13 09:26:51;;;;;;;4.83;3.50;;;5.40;40.20;;;;;;5012796;28;20272;-65
2021/01/13 09:29:17;;;;;;;3.63;3.33;;;5.10;39.80;;;;;;5012704;28;20412;-65
2021/01/13 09:32:10;;;;;;;3.50;3.20;;;5.30;41.20;;;;;;5012940;28;20920;-65
2021/01/13 09:34:36;;;;;;;3.43;3.03;;;5.50;40.40;;;;;;5012677;28;20959;-64
2021/01/13 09:37:01;;;;;;;4.27;3.63;;;5.40;39.50;;;;;;5011164;28;20421;-65
2021/01/13 09:39:36;;;;;;;5.20;3.90;;;5.60;40.60;;;;;;5012265;28;20205;-65
2021/01/13 09:42:06;;;;;;;7.30;4.23;;;5.60;39.00;;;;;;5012772;28;20187;-65
2021/01/13 09:44:35;;;;;;;3.50;3.17;;;5.80;39.10;;;;;;5012560;28;20502;-65
2021/01/13 09:47:20;;;;;;;7.63;3.80;;;6.00;38.80;;;;;;5012482;28;20416;-66
2021/01/13 09:49:49;;;;;;;4.43;3.33;;;6.10;38.20;;;;;;5012282;28;20721;-66
2021/01/13 09:52:14;;;;;;;5.17;3.77;;;5.70;39.00;;;;;;5012192;28;20454;-66
2021/01/13 09:54:48;;;;;;;4.30;3.20;;;5.90;39.20;;;;;;5012268;28;20427;-65
2021/01/13 09:57:15;;;;;;;5.33;3.33;;;5.90;39.90;;;;;;5012158;28;20435;-66
2021/01/13 10:00:07;;;;;;;5.93;3.43;;;5.80;39.10;;;;;;5012045;28;20547;-65
2021/01/13 10:02:33;;;;;;;3.83;3.43;;;5.80;39.10;;;;;;5011962;28;20774;-65
2021/01/13 10:04:59;;;;;;;3.33;3.03;;;5.80;39.10;;;;;;5012447;28;20437;-66
2021/01/13 10:07:30;;;;;;;3.63;3.33;;;6.00;39.70;;;;;;5012175;28;20519;-65
2021/01/13 10:09:57;;;;;;;3.90;3.50;;;6.00;38.40;;;;;;5012242;28;20419;-66
2021/01/13 10:12:46;;;;;;;6.37;3.40;;;5.90;39.20;;;;;;5012079;28;20938;-64
2021/01/13 10:15:13;;;;;;;4.07;3.10;;;6.10;39.30;;;;;;5011973;28;20431;-65
2021/01/13 10:17:41;;;;;;;5.40;4.20;;;6.10;38.30;;;;;;5011931;28;20463;-66
2021/01/13 10:20:15;;;;;;;5.10;4.00;;;6.30;38.20;;;;;;5012180;28;20881;-64
2021/01/13 10:22:41;;;;;;;5.93;3.60;;;6.10;38.40;;;;;;5011864;28;20415;-64
2021/01/13 10:25:07;;;;;;;4.80;2.90;;;6.10;39.10;;;;;;5011458;28;20460;-65
2021/01/13 10:27:40;;;;;;;3.63;3.30;;;6.20;38.70;;;;;;5011667;28;20623;-65
2021/01/13 10:30:10;;;;;;;5.03;3.80;;;6.20;37.70;;;;;;5012003;28;20768;-65
2021/01/13 10:33:05;;;;;;;4.20;3.43;;;6.20;38.20;;;;;;5009702;28;20930;-65
2021/01/13 10:35:39;;;;;;;5.93;3.47;;;6.20;38.50;;;;;;5010712;28;20447;-65
2021/01/13 10:38:05;;;;;;;5.30;3.60;;;6.10;38.50;;;;;;5011679;28;20407;-65
2021/01/13 10:40:30;;;;;;;3.30;3.00;;;6.20;38.80;;;;;;5011404;28;20816;-66
2021/01/13 10:42:56;;;;;;;8.40;3.23;;;6.00;39.30;;;;;;5011367;28;20175;-65
2021/01/13 10:45:23;;;;;;;3.77;3.07;;;5.90;39.20;;;;;;5011767;28;20221;-65
2021/01/13 10:48:01;;;;;;;4.17;3.27;;;5.90;39.20;;;;;;5011055;28;20249;-66
2021/01/13 10:50:30;;;;;;;4.50;4.10;;;6.00;39.30;;;;;;5011212;28;20460;-65
2021/01/13 10:52:58;;;;;;;58.70;38.13;;;6.00;40.00;;;;;;5011613;28;20422;-66
2021/01/13 10:55:29;;;;;;;8.70;4.50;;;5.90;39.20;;;;;;5011335;28;20434;-65
2021/01/13 10:57:56;;;;;;;4.83;2.70;;;6.10;39.60;;;;;;5011164;28;20941;-66
2021/01/13 11:00:27;;;;;;;3.90;3.50;;;6.10;39.10;;;;;;5011135;28;20462;-65
2021/01/13 11:02:55;;;;;;;3.73;2.60;;;6.20;39.40;;;;;;5011139;28;20410;-65
2021/01/13 11:05:21;;;;;;;5.70;3.50;;;6.10;38.00;;;;;;5010898;28;20420;-67
2021/01/13 11:07:51;;;;;;;3.60;3.30;;;6.20;40.00;;;;;;5011031;28;20915;-65
2021/01/13 11:10:17;;;;;;;3.73;2.13;;;6.20;38.20;;;;;;5011179;28;20416;-64
2021/01/13 11:12:43;;;;;;;3.20;3.00;;;6.20;38.50;;;;;;5010857;28;20416;-65
2021/01/13 11:15:10;;;;;;;4.57;2.63;;;6.10;38.40;;;;;;5010871;28;20436;-64
2021/01/13 11:17:36;;;;;;;5.63;3.47;;;6.00;39.30;;;;;;5010936;28;20176;-64
2021/01/13 11:20:07;;;;;;;2.80;2.40;;;6.10;39.40;;;;;;5011033;28;20889;-64
2021/01/13 11:22:51;;;;;;;8.23;2.50;;;6.20;39.40;;;;;;5011027;28;20775;-65
2021/01/13 11:25:28;;;;;;;5.57;3.60;;;6.30;38.80;;;;;;5010813;28;20960;-65
2021/01/13 11:27:55;;;;;;;2.90;2.70;;;6.30;39.50;;;;;;5010832;28;20916;-65
2021/01/13 11:30:21;;;;;;;6.07;3.40;;;6.70;37.80;;;;;;5011005;28;20416;-66
2021/01/13 11:32:51;;;;;;;5.03;3.03;;;6.60;37.70;;;;;;5010869;28;20503;-66
2021/01/13 11:35:28;;;;;;;3.63;3.30;;;6.70;36.80;;;;;;5010608;28;20446;-66
2021/01/13 11:38:32;;;;;;;5.93;2.93;;;6.60;36.50;;;;;;5010674;28;20448;-67
2021/01/13 11:41:16;;;;;;;4.80;3.40;;;6.60;36.50;;;;;;5010835;28;20425;-67
2021/01/13 11:43:51;;;;;;;4.03;3.20;;;6.70;37.30;;;;;;5012281;28;20449;-67
2021/01/13 11:46:22;;;;;;;2.53;2.40;;;6.70;36.80;;;;;;5014272;28;20461;-67
2021/01/13 11:49:20;;;;;;;2.50;2.30;;;6.60;35.60;;;;;;5014641;28;20411;-66
2021/01/13 11:51:48;;;;;;;3.60;3.00;;;6.70;35.80;;;;;;5014467;28;20414;-69
2021/01/13 11:54:24;;;;;;;3.13;2.93;;;7.40;50.20;;;;;;5014328;28;20834;-68
2021/01/13 11:56:50;;;;;;;4.50;2.60;;;8.00;46.70;;;;;;5013041;28;20415;-69
2021/01/13 11:59:26;;;;;;;4.73;2.60;;;7.70;37.10;;;;;;5014214;28;20462;-68
2021/01/13 12:01:53;;;;;;;2.87;2.57;;;7.50;34.20;;;;;;5014309;28;20411;-68
2021/01/13 12:04:19;;;;;;;2.90;2.70;;;7.50;33.90;;;;;;5014037;28;20472;-68
2021/01/13 12:06:55;;;;;;;3.63;2.67;;;7.30;34.30;;;;;;5013994;28;20424;-65
2021/01/13 12:09:20;;;;;;;4.57;2.90;;;7.10;34.40;;;;;;5013959;28;20648;-67
2021/01/13 12:11:46;;;;;;;3.10;2.37;;;7.20;34.30;;;;;;5014127;28;20551;-65
2021/01/13 12:14:12;;;;;;;2.60;2.13;;;7.00;34.70;;;;;;5014042;28;20260;-65
2021/01/13 12:16:38;;;;;;;2.93;2.63;;;7.00;34.20;;;;;;5013735;28;20204;-65
2021/01/13 12:19:03;;;;;;;4.30;2.47;;;7.00;33.70;;;;;;5014152;28;20458;-65
2021/01/13 12:21:29;;;;;;;4.13;2.70;;;7.10;34.00;;;;;;5014093;28;20565;-66
2021/01/13 12:23:56;;;;;;;4.00;2.13;;;7.10;33.10;;;;;;5013633;28;20251;-66
2021/01/13 12:26:33;;;;;;;2.50;2.20;;;7.10;32.90;;;;;;5013910;28;20574;-65
2021/01/13 12:29:02;;;;;;;4.60;2.43;;;7.10;32.90;;;;;;5013689;28;20770;-65
2021/01/13 12:32:05;;;;;;;4.13;2.03;;;7.10;33.40;;;;;;5013758;28;20434;-65
2021/01/13 12:34:30;;;;;;;3.63;2.00;;;7.10;32.00;;;;;;5011850;28;20913;-65
2021/01/13 12:37:04;;;;;;;2.97;1.90;;;7.00;32.60;;;;;;5013891;28;20426;-65
2021/01/13 12:39:35;;;;;;;4.30;1.97;;;7.00;32.30;;;;;;5013623;28;20200;-66
2021/01/13 12:42:02;;;;;;;2.10;1.80;;;6.90;32.70;;;;;;5014152;28;20420;-67
2021/01/13 12:44:29;;;;;;;7.17;2.63;;;7.00;32.30;;;;;;5013942;28;20442;-67
2021/01/13 12:47:02;;;;;;;3.80;2.03;;;7.20;32.20;;;;;;5014142;28;20490;-66
2021/01/13 12:49:27;;;;;;;2.10;2.00;;;7.00;32.60;;;;;;5013975;28;20412;-66
2021/01/13 12:51:55;;;;;;;2.37;2.20;;;7.00;32.60;;;;;;4993734;28;20916;-65
2021/01/13 12:54:21;;;;;;;3.37;3.03;;;6.90;32.70;;;;;;4993635;28;20184;-65
2021/01/13 12:56:47;;;;;;;4.93;1.97;;;6.90;34.10;;;;;;4994008;28;20449;-64
2021/01/13 12:59:14;;;;;;;12.10;3.47;;;7.10;32.00;;;;;;4993279;28;20460;-64
2021/01/13 13:01:42;;;;;;;3.47;1.50;;;7.20;31.40;;;;;;4993707;28;20416;-65
2021/01/13 13:04:08;;;;;;;2.43;1.80;;;7.20;31.10;;;;;;4993529;28;20488;-64
2021/01/13 13:06:35;;;;;;;3.43;1.97;;;7.20;30.10;;;;;;4993489;28;20420;-65
2021/01/13 13:09:07;;;;;;;2.17;1.60;;;7.10;30.70;;;;;;5015973;28;20417;-64
2021/01/13 13:11:33;;;;;;;6.33;2.00;;;7.00;29.70;;;;;;5032882;28;20397;-65
2021/01/13 13:13:58;;;;;;;3.93;1.83;;;7.00;30.00;;;;;;5032905;28;20420;-65
2021/01/13 13:16:24;;;;;;;2.33;1.93;;;7.10;30.20;;;;;;5022515;28;20438;-67
2021/01/13 13:18:54;;;;;;;1.37;1.30;;;7.00;30.90;;;;;;5013036;28;20207;-64
2021/01/13 13:21:21;;;;;;;4.20;3.00;;;7.10;29.40;;;;;;5012975;28;20994;-65